Time;durP1;ratioP1;P1;durP2;ratioP2;P2;SDS_P1;SDS_P2;PMS_P1;PMS_P2;Temp;Humidity;BMP_temperature;BMP_pressure;BME280_temperature;BME280_humidity;BME280_pressure;Samples;Min_cycle;Max_cycle;Signal;HPM_P1;HPM_P2
2021/01/22 00:00:57;;;;;;;6.73;3.90;;;;;;;;;;4393187;32;20252;-76
2021/01/22 00:03:22;;;;;;;6.80;3.30;;;;;;;;;;4392942;32;20216;-77
2021/01/22 00:05:48;;;;;;;7.83;4.00;;;;;;;;;;4393239;32;20159;-77
2021/01/22 00:08:13;;;;;;;6.30;3.73;;;;;;;;;;4393313;32;20180;-78
2021/01/22 00:10:38;;;;;;;5.47;2.77;;;;;;;;;;4392773;32;20188;-78
2021/01/22 00:13:03;;;;;;;4.43;2.53;;;;;;;;;;4407614;32;20130;-78
2021/01/22 00:15:31;;;;;;;3.87;2.03;;;;;;;;;;4393060;32;20150;-77
2021/01/22 00:17:57;;;;;;;5.67;2.03;;;;;;;;;;4393190;32;20142;-78
2021/01/22 00:20:22;;;;;;;3.27;2.23;;;;;;;;;;4392831;32;20235;-78
2021/01/22 00:22:48;;;;;;;4.00;2.00;;;;;;;;;;4392700;32;20227;-77
2021/01/22 00:25:13;;;;;;;4.60;2.40;;;;;;;;;;4393034;32;20169;-77
2021/01/22 00:27:39;;;;;;;6.80;2.83;;;;;;;;;;4392749;32;20294;-77
2021/01/22 00:30:04;;;;;;;8.40;3.20;;;;;;;;;;4392715;32;20165;-77
2021/01/22 00:32:30;;;;;;;8.33;3.30;;;;;;;;;;4392644;32;20664;-78
2021/01/22 00:34:55;;;;;;;8.77;3.60;;;;;;;;;;4407054;32;20180;-77
2021/01/22 00:37:27;;;;;;;6.17;3.53;;;;;;;;;;4406851;32;20150;-77
2021/01/22 00:39:55;;;;;;;7.60;4.20;;;;;;;;;;4383868;32;20150;-78
2021/01/22 00:42:23;;;;;;;9.57;5.00;;;;;;;;;;4390050;32;20163;-77
2021/01/22 00:44:49;;;;;;;10.73;7.20;;;;;;;;;;4392364;32;20192;-78
2021/01/22 00:47:14;;;;;;;13.37;8.10;;;;;;;;;;4392205;32;20158;-77
2021/01/22 00:49:39;;;;;;;14.60;8.47;;;;;;;;;;4392624;32;20235;-78
2021/01/22 00:52:08;;;;;;;13.73;8.53;;;;;;;;;;4392333;32;20159;-78
2021/01/22 00:54:33;;;;;;;10.83;7.83;;;;;;;;;;4406248;32;20131;-78
2021/01/22 00:57:15;;;;;;;12.53;7.90;;;;;;;;;;4392131;32;20624;-79
2021/01/22 00:59:44;;;;;;;9.73;6.97;;;;;;;;;;4392773;32;20177;-79
2021/01/22 01:02:09;;;;;;;10.43;6.17;;;;;;;;;;4392239;32;20154;-79
2021/01/22 01:04:34;;;;;;;10.67;6.37;;;;;;;;;;4391277;32;20244;-79
2021/01/22 01:07:00;;;;;;;9.67;5.80;;;;;;;;;;4392187;32;20146;-79
2021/01/22 01:09:31;;;;;;;7.40;5.03;;;;;;;;;;4391788;32;20491;-80
2021/01/22 01:11:57;;;;;;;8.03;5.47;;;;;;;;;;4392535;32;20170;-78
2021/01/22 01:14:23;;;;;;;9.03;4.60;;;;;;;;;;4391384;32;20197;-78
2021/01/22 01:16:51;;;;;;;8.93;4.90;;;;;;;;;;4392363;32;20652;-80
2021/01/22 01:19:16;;;;;;;8.40;4.90;;;;;;;;;;4379209;32;20283;-80
2021/01/22 01:21:45;;;;;;;8.63;4.43;;;;;;;;;;4392032;32;20165;-79
2021/01/22 01:24:10;;;;;;;7.30;4.10;;;;;;;;;;4392306;32;20151;-79
2021/01/22 01:26:39;;;;;;;6.27;3.17;;;;;;;;;;4391745;32;20233;-79
2021/01/22 01:29:15;;;;;;;6.40;2.73;;;;;;;;;;4391827;32;20219;-79
2021/01/22 01:31:57;;;;;;;5.30;2.00;;;;;;;;;;4392046;32;20146;-80
2021/01/22 01:34:25;;;;;;;4.27;1.87;;;;;;;;;;4391540;32;20150;-80
2021/01/22 01:36:50;;;;;;;2.53;1.50;;;;;;;;;;4391981;32;20158;-81
2021/01/22 01:39:16;;;;;;;3.80;1.50;;;;;;;;;;4392037;32;20620;-82
2021/01/22 01:41:47;;;;;;;1.97;1.10;;;;;;;;;;4405326;32;20179;-82
2021/01/22 01:44:15;;;;;;;4.03;1.33;;;;;;;;;;4391867;32;20189;-82
2021/01/22 01:46:45;;;;;;;4.10;1.37;;;;;;;;;;4391931;32;20146;-83
2021/01/22 01:49:17;;;;;;;5.33;1.73;;;;;;;;;;4391874;32;20180;-82
2021/01/22 01:52:12;;;;;;;3.07;1.40;;;;;;;;;;4376620;32;20236;-83
2021/01/22 01:54:56;;;;;;;5.37;2.10;;;;;;;;;;4371906;32;20181;-83
2021/01/22 01:57:27;;;;;;;5.70;1.70;;;;;;;;;;4376690;32;20180;-83
2021/01/22 02:00:02;;;;;;;4.67;1.80;;;;;;;;;;4370857;32;20147;-83
2021/01/22 02:02:45;;;;;;;2.80;1.57;;;;;;;;;;4376224;32;20157;-84
2021/01/22 02:05:18;;;;;;;3.77;1.60;;;;;;;;;;4376358;32;20154;-84
2021/01/22 02:08:01;;;;;;;6.80;2.13;;;;;;;;;;4372029;32;20181;-83
2021/01/22 02:10:34;;;;;;;2.93;1.60;;;;;;;;;;4374539;32;20159;-83
2021/01/22 02:13:20;;;;;;;3.47;1.30;;;;;;;;;;4358169;32;20222;-82
2021/01/22 02:15:48;;;;;;;1.60;1.00;;;;;;;;;;4345767;33;20158;-82
2021/01/22 02:18:22;;;;;;;3.60;0.93;;;;;;;;;;4357677;33;20228;-83
2021/01/22 02:21:09;;;;;;;4.37;1.10;;;;;;;;;;4345503;33;20252;-82
2021/01/22 02:23:51;;;;;;;4.37;1.07;;;;;;;;;;4345564;33;20177;-83
2021/01/22 02:26:49;;;;;;;2.13;0.70;;;;;;;;;;4345676;33;20229;-83
2021/01/22 02:29:18;;;;;;;1.93;0.83;;;;;;;;;;4357639;33;20155;-82
2021/01/22 02:31:45;;;;;;;3.77;1.17;;;;;;;;;;4345199;33;20218;-83
2021/01/22 02:34:20;;;;;;;1.40;0.80;;;;;;;;;;4345582;33;20589;-83
2021/01/22 02:37:13;;;;;;;4.50;1.00;;;;;;;;;;4350564;32;20235;-83
2021/01/22 02:39:42;;;;;;;2.83;0.57;;;;;;;;;;4376934;32;20150;-84
2021/01/22 02:42:20;;;;;;;3.63;0.77;;;;;;;;;;4375840;32;20158;-83
2021/01/22 02:44:53;;;;;;;3.50;0.80;;;;;;;;;;4376142;32;20224;-83
2021/01/22 02:47:35;;;;;;;3.47;0.80;;;;;;;;;;4375864;32;20175;-83
2021/01/22 02:50:20;;;;;;;3.53;0.70;;;;;;;;;;4375241;32;20680;-84
2021/01/22 02:53:07;;;;;;;3.47;0.90;;;;;;;;;;4375983;32;20211;-83
2021/01/22 02:56:20;;;;;;;;;;;;;;;;;;;;;
2021/01/22 02:59:07;;;;;;;2.40;0.80;;;;;;;;;;4343263;33;20140;-83
2021/01/22 03:14:12;;;;;;;7.03;0.80;;;;;;;;;;4270622;33;20216;-84
2021/01/22 03:17:05;;;;;;;3.63;0.90;;;;;;;;;;4336300;33;20489;-84
2021/01/22 03:20:00;;;;;;;;;;;;;;;;;;;;;
2021/01/22 03:22:52;;;;;;;2.50;0.70;;;;;;;;;;4389659;32;20146;-84
2021/01/22 03:25:30;;;;;;;5.87;1.10;;;;;;;;;;4375636;32;20150;-84
2021/01/22 03:28:24;;;;;;;5.43;1.10;;;;;;;;;;4390986;32;20211;-84
2021/01/22 03:30:55;;;;;;;4.73;0.97;;;;;;;;;;4378626;32;20162;-84
2021/01/22 03:40:28;;;;;;;3.63;1.00;;;;;;;;;;4316388;33;20688;-84
2021/01/22 03:46:14;;;;;;;2.27;1.00;;;;;;;;;;4317100;33;20162;-84
2021/01/22 03:48:46;;;;;;;7.90;1.30;;;;;;;;;;4305205;33;20155;-84
2021/01/22 03:54:44;;;;;;;5.63;1.87;;;;;;;;;;4331151;33;20263;-84
2021/01/22 04:00:40;;;;;;;6.53;1.40;;;;;;;;;;4330868;33;20198;-84
2021/01/22 04:03:11;;;;;;;8.40;1.50;;;;;;;;;;4330362;33;20186;-84
2021/01/22 04:06:01;;;;;;;7.70;1.60;;;;;;;;;;4330127;33;20167;-84
2021/01/22 04:11:40;;;;;;;9.00;1.77;;;;;;;;;;4300854;33;20235;-84
2021/01/22 04:14:09;;;;;;;9.00;1.63;;;;;;;;;;4325322;33;20303;-84
2021/01/22 04:22:41;;;;;;;4.07;1.30;;;;;;;;;;4330511;33;20571;-84
2021/01/22 04:25:10;;;;;;;5.17;1.20;;;;;;;;;;4329857;33;20193;-83
2021/01/22 04:27:49;;;;;;;7.20;1.33;;;;;;;;;;4317663;33;20152;-83
2021/01/22 04:30:15;;;;;;;4.67;1.40;;;;;;;;;;4322539;33;20178;-83
2021/01/22 04:33:15;;;;;;;;;;;;;;;;;;;;;
2021/01/22 04:35:50;;;;;;;8.97;1.60;;;;;;;;;;4342379;33;20174;-84
2021/01/22 04:38:31;;;;;;;8.63;1.97;;;;;;;;;;4346543;33;20147;-83
2021/01/22 04:41:19;;;;;;;7.07;2.33;;;;;;;;;;4346735;33;20199;-83
2021/01/22 04:43:48;;;;;;;6.17;1.80;;;;;;;;;;4346850;33;20154;-83
2021/01/22 04:46:28;;;;;;;5.47;2.00;;;;;;;;;;4346594;33;20619;-84
2021/01/22 04:49:06;;;;;;;8.43;2.10;;;;;;;;;;4379912;32;20189;-83
2021/01/22 04:51:55;;;;;;;13.13;2.20;;;;;;;;;;4392530;32;20216;-83
2021/01/22 04:54:34;;;;;;;7.70;2.27;;;;;;;;;;4392468;32;20158;-83
2021/01/22 04:57:04;;;;;;;8.17;2.03;;;;;;;;;;4392398;32;20154;-83
2021/01/22 04:59:47;;;;;;;10.93;2.13;;;;;;;;;;4389721;32;20159;-83
2021/01/22 05:02:12;;;;;;;8.47;1.50;;;;;;;;;;4388934;32;20598;-83
2021/01/22 05:04:43;;;;;;;9.60;2.20;;;;;;;;;;4392589;32;20177;-83
2021/01/22 05:07:58;;;;;;;8.87;1.70;;;;;;;;;;4393204;32;20165;-83
2021/01/22 05:10:08;;;;;;;13.23;2.07;;;;;;;;;;4399774;32;20575;-83
2021/01/22 05:12:40;;;;;;;6.27;1.60;;;;;;;;;;4392085;32;20250;-83
2021/01/22 05:18:35;;;;;;;7.97;1.80;;;;;;;;;;4359149;32;20218;-82
2021/01/22 05:21:10;;;;;;;10.07;1.83;;;;;;;;;;4386505;32;20623;-83
2021/01/22 05:23:44;;;;;;;10.10;2.40;;;;;;;;;;4392004;32;20162;-83
2021/01/22 05:26:11;;;;;;;10.93;3.30;;;;;;;;;;4392402;32;20496;-83
2021/01/22 05:28:53;;;;;;;10.13;2.37;;;;;;;;;;4392901;32;20146;-83
2021/01/22 05:31:33;;;;;;;7.40;2.40;;;;;;;;;;4392572;32;20172;-83
2021/01/22 05:34:12;;;;;;;10.57;2.73;;;;;;;;;;4392052;32;20150;-83
2021/01/22 05:36:45;;;;;;;9.70;2.73;;;;;;;;;;4392153;32;20150;-84
2021/01/22 05:39:40;;;;;;;10.30;2.83;;;;;;;;;;4391653;32;20150;-84
2021/01/22 05:42:09;;;;;;;5.87;2.30;;;;;;;;;;4325027;32;20202;-83
2021/01/22 05:44:51;;;;;;;9.40;2.60;;;;;;;;;;4391794;32;20188;-83
2021/01/22 05:47:40;;;;;;;9.33;2.67;;;;;;;;;;4391102;32;20154;-83
2021/01/22 05:50:11;;;;;;;10.27;2.90;;;;;;;;;;4390626;32;20197;-83
2021/01/22 05:52:42;;;;;;;9.73;2.37;;;;;;;;;;4391376;32;20508;-83
2021/01/22 06:01:48;;;;;;;;;;;;;;;;;;;;;
2021/01/22 06:04:36;;;;;;;11.13;3.10;;;;;;;;;;4390391;32;20150;-83
2021/01/22 06:07:18;;;;;;;12.50;3.70;;;;;;;;;;4376141;32;20180;-83
2021/01/22 06:10:00;;;;;;;10.93;3.20;;;;;;;;;;4376367;32;20189;-83
2021/01/22 06:12:46;;;;;;;8.17;2.93;;;;;;;;;;4376809;32;20154;-84
2021/01/22 06:15:36;;;;;;;13.93;3.53;;;;;;;;;;4376728;32;20157;-84
2021/01/22 06:18:32;;;;;;;10.17;3.77;;;;;;;;;;4389341;32;20162;-83
2021/01/22 06:27:26;;;;;;;10.60;4.90;;;;;;;;;;4328867;33;20664;-84
2021/01/22 06:29:52;;;;;;;15.70;7.03;;;;;;;;;;4380563;32;20189;-83
2021/01/22 06:32:30;;;;;;;16.90;6.43;;;;;;;;;;4373910;32;20174;-83
2021/01/22 06:35:08;;;;;;;17.43;7.67;;;;;;;;;;4371893;32;20154;-83
2021/01/22 06:37:51;;;;;;;23.13;9.87;;;;;;;;;;4376473;32;20177;-83
2021/01/22 06:40:21;;;;;;;21.40;10.77;;;;;;;;;;4375925;32;20146;-83
2021/01/22 06:43:17;;;;;;;;;;;;;;;;;;;;;
2021/01/22 06:49:18;;;;;;;31.83;14.40;;;;;;;;;;4313772;33;20139;-82
2021/01/22 06:52:04;;;;;;;25.07;11.33;;;;;;;;;;4359156;32;20600;-83
2021/01/22 06:54:29;;;;;;;26.00;13.00;;;;;;;;;;4358785;32;20177;-83
2021/01/22 06:57:14;;;;;;;;;;;;;;;;;;;;;
2021/01/22 06:59:39;;;;;;;21.80;11.87;;;;;;;;;;4374931;32;20143;-82
2021/01/22 07:02:33;;;;;;;34.03;13.77;;;;;;;;;;4362754;32;20159;-83
2021/01/22 07:05:05;;;;;;;29.77;12.60;;;;;;;;;;4344881;32;20189;-84
2021/01/22 07:07:48;;;;;;;28.97;12.70;;;;;;;;;;4363370;32;20150;-83
2021/01/22 07:10:17;;;;;;;30.73;13.30;;;;;;;;;;4363798;32;20620;-83
2021/01/22 07:12:52;;;;;;;34.10;14.47;;;;;;;;;;4362182;32;20221;-83
2021/01/22 07:15:24;;;;;;;29.70;12.93;;;;;;;;;;4364450;32;20204;-83
2021/01/22 07:18:00;;;;;;;26.67;13.23;;;;;;;;;;4377057;32;20139;-82
2021/01/22 07:20:32;;;;;;;29.33;12.73;;;;;;;;;;4363872;32;20154;-83
2021/01/22 07:23:04;;;;;;;27.40;13.70;;;;;;;;;;4364156;32;20276;-83
2021/01/22 07:25:33;;;;;;;25.77;11.37;;;;;;;;;;4363723;32;20163;-83
2021/01/22 07:28:20;;;;;;;23.20;10.83;;;;;;;;;;4363484;32;20155;-83
2021/01/22 07:30:58;;;;;;;;;;;;;;;;;;;;;
2021/01/22 07:33:42;;;;;;;23.73;11.53;;;;;;;;;;4377166;32;20165;-83
2021/01/22 07:36:26;;;;;;;;;;;;;;;;;;;;;
2021/01/22 07:39:03;;;;;;;26.23;10.93;;;;;;;;;;4377240;32;20138;-84
2021/01/22 07:41:36;;;;;;;23.47;9.93;;;;;;;;;;4378611;32;20161;-82
2021/01/22 07:44:14;;;;;;;27.87;11.97;;;;;;;;;;4390225;32;20584;-83
2021/01/22 07:46:45;;;;;;;27.07;11.07;;;;;;;;;;4372016;32;20223;-83
2021/01/22 07:49:11;;;;;;;23.07;10.17;;;;;;;;;;4375065;32;20158;-74
2021/01/22 07:51:43;;;;;;;27.73;10.40;;;;;;;;;;4377983;32;20580;-74
2021/01/22 07:54:11;;;;;;;27.33;9.50;;;;;;;;;;4392214;32;20188;-74
2021/01/22 07:56:37;;;;;;;20.60;9.90;;;;;;;;;;4378043;32;20223;-75
2021/01/22 07:59:05;;;;;;;24.53;10.20;;;;;;;;;;4377967;32;20816;-75
2021/01/22 08:01:31;;;;;;;20.83;9.20;;;;;;;;;;4376921;32;20238;-74
2021/01/22 08:03:56;;;;;;;23.97;9.63;;;;;;;;;;4392181;32;20139;-76
2021/01/22 08:06:22;;;;;;;19.53;9.50;;;;;;;;;;4391639;32;20131;-75
2021/01/22 08:09:12;;;;;;;19.53;8.70;;;;;;;;;;4377774;32;20158;-75
2021/01/22 08:14:48;;;;;;;21.27;9.57;;;;;;;;;;4310498;33;20156;-75
2021/01/22 08:17:14;;;;;;;25.93;9.93;;;;;;;;;;4375434;32;20495;-74
2021/01/22 08:19:39;;;;;;;17.73;8.50;;;;;;;;;;4391975;32;20130;-75
2021/01/22 08:22:04;;;;;;;19.07;8.23;;;;;;;;;;4391642;32;20496;-75
2021/01/22 08:24:30;;;;;;;17.87;7.37;;;;;;;;;;4375925;32;20178;-74
2021/01/22 08:26:59;;;;;;;17.10;7.77;;;;;;;;;;4390836;32;20173;-74
2021/01/22 08:29:25;;;;;;;15.50;7.07;;;;;;;;;;4377347;32;20192;-74
2021/01/22 08:31:53;;;;;;;16.03;7.60;;;;;;;;;;4376615;32;20162;-75
2021/01/22 08:34:19;;;;;;;20.13;7.80;;;;;;;;;;4377830;32;20189;-76
2021/01/22 08:36:45;;;;;;;13.23;7.40;;;;;;;;;;4376894;32;20158;-75
2021/01/22 08:39:10;;;;;;;15.20;7.83;;;;;;;;;;4388710;32;20185;-75
2021/01/22 08:41:38;;;;;;;21.10;8.57;;;;;;;;;;4376685;32;20591;-74
2021/01/22 08:44:23;;;;;;;19.37;9.27;;;;;;;;;;4388208;32;20213;-75
2021/01/22 08:46:53;;;;;;;24.23;9.93;;;;;;;;;;4362098;32;20189;-74
2021/01/22 08:49:21;;;;;;;24.30;8.93;;;;;;;;;;4362827;32;20498;-75
2021/01/22 08:51:46;;;;;;;20.30;7.80;;;;;;;;;;4375766;32;20244;-75
2021/01/22 08:54:12;;;;;;;25.23;8.70;;;;;;;;;;4380675;32;20229;-76
2021/01/22 08:56:38;;;;;;;27.00;8.97;;;;;;;;;;4389600;32;20191;-76
2021/01/22 08:59:04;;;;;;;16.63;7.93;;;;;;;;;;4380990;32;20201;-76
2021/01/22 09:01:45;;;;;;;16.87;7.13;;;;;;;;;;4377008;32;20178;-75
2021/01/22 09:04:39;;;;;;;13.93;7.00;;;;;;;;;;4376592;32;20174;-74
2021/01/22 09:07:05;;;;;;;20.23;8.03;;;;;;;;;;4363440;32;20169;-74
2021/01/22 09:09:37;;;;;;;13.20;7.37;;;;;;;;;;4390273;32;20208;-74
2021/01/22 09:12:13;;;;;;;18.17;7.50;;;;;;;;;;4376662;32;20638;-75
2021/01/22 09:14:55;;;;;;;17.37;6.97;;;;;;;;;;4376589;32;20170;-74
2021/01/22 09:17:37;;;;;;;16.63;6.90;;;;;;;;;;4376370;32;20182;-74
2021/01/22 09:20:12;;;;;;;16.83;7.90;;;;;;;;;;4376458;32;20503;-74
2021/01/22 09:22:38;;;;;;;14.30;7.13;;;;;;;;;;4390427;32;20200;-75
2021/01/22 09:26:00;;;;;;;;;;;;;;;;;;;;;
2021/01/22 09:28:26;;;;;;;19.27;7.70;;;;;;;;;;4376539;32;20169;-74
2021/01/22 09:31:00;;;;;;;16.63;7.27;;;;;;;;;;4343164;33;20151;-75
2021/01/22 09:33:28;;;;;;;14.37;7.73;;;;;;;;;;4389710;32;20139;-77
2021/01/22 09:35:56;;;;;;;14.47;8.10;;;;;;;;;;4389764;32;20165;-74
2021/01/22 09:38:25;;;;;;;17.80;8.27;;;;;;;;;;4389905;32;20138;-74
2021/01/22 09:40:50;;;;;;;18.90;8.00;;;;;;;;;;4377167;32;20161;-74
2021/01/22 09:45:06;;;;;;;14.67;7.77;;;;;;;;;;4448490;32;20258;-76
2021/01/22 09:47:32;;;;;;;17.53;8.60;;;;;;;;;;4418608;32;20180;-74
2021/01/22 09:49:57;;;;;;;18.77;8.87;;;;;;;;;;4432673;32;20543;-76
2021/01/22 09:52:23;;;;;;;16.67;8.10;;;;;;;;;;4432630;32;20138;-75
2021/01/22 09:54:51;;;;;;;17.80;8.23;;;;;;;;;;4415212;32;20162;-73
2021/01/22 09:57:16;;;;;;;21.80;10.37;;;;;;;;;;4431709;32;20172;-70
2021/01/22 09:59:42;;;;;;;17.83;8.40;;;;;;;;;;4417711;32;20521;-70
2021/01/22 10:02:07;;;;;;;23.63;8.23;;;;;;;;;;4433035;32;20125;-74
2021/01/22 10:04:43;;;;;;;19.77;8.83;;;;;;;;;;4432738;32;20164;-74
2021/01/22 10:07:08;;;;;;;23.13;8.83;;;;;;;;;;4420092;32;20209;-76
2021/01/22 10:09:33;;;;;;;16.27;7.13;;;;;;;;;;4403168;32;20599;-74
2021/01/22 10:11:59;;;;;;;18.33;7.77;;;;;;;;;;4416806;32;20496;-74
2021/01/22 10:14:25;;;;;;;20.00;7.70;;;;;;;;;;4417422;32;20495;-75
2021/01/22 10:16:56;;;;;;;13.57;6.67;;;;;;;;;;4417143;32;20187;-75
2021/01/22 10:19:24;;;;;;;19.67;7.50;;;;;;;;;;4417623;32;20164;-76
2021/01/22 10:21:49;;;;;;;13.37;6.37;;;;;;;;;;4416495;32;20150;-76
2021/01/22 10:24:16;;;;;;;15.53;5.73;;;;;;;;;;4416729;32;20207;-75
2021/01/22 10:26:59;;;;;;;16.17;5.77;;;;;;;;;;4416798;32;20258;-75
2021/01/22 10:29:24;;;;;;;12.67;4.90;;;;;;;;;;4417000;32;20175;-76
2021/01/22 10:31:56;;;;;;;15.73;4.80;;;;;;;;;;4403071;32;20154;-76
2021/01/22 10:34:27;;;;;;;12.00;4.83;;;;;;;;;;4403321;32;20645;-76
2021/01/22 10:36:52;;;;;;;13.30;5.20;;;;;;;;;;4406587;32;20227;-75
2021/01/22 10:39:20;;;;;;;13.10;4.57;;;;;;;;;;4403772;32;20177;-76
2021/01/22 10:41:45;;;;;;;12.73;5.10;;;;;;;;;;4406941;32;20488;-75
2021/01/22 10:44:19;;;;;;;14.13;4.20;;;;;;;;;;4403655;32;20166;-75
2021/01/22 10:47:07;;;;;;;;;;;;;;;;;;;;;
2021/01/22 10:49:40;;;;;;;14.10;4.50;;;;;;;;;;4419520;32;20507;-76
2021/01/22 10:52:05;;;;;;;15.43;4.40;;;;;;;;;;4426733;32;20196;-75
2021/01/22 10:54:30;;;;;;;10.20;4.00;;;;;;;;;;4404638;32;20523;-75
2021/01/22 10:56:56;;;;;;;12.80;3.80;;;;;;;;;;4407218;32;20546;-76
2021/01/22 10:59:21;;;;;;;10.87;3.77;;;;;;;;;;4396215;32;20753;-76
2021/01/22 11:01:48;;;;;;;9.90;3.33;;;;;;;;;;4399745;32;20169;-76
2021/01/22 11:04:22;;;;;;;7.70;3.43;;;;;;;;;;4393141;32;20173;-75
2021/01/22 11:06:50;;;;;;;11.27;3.83;;;;;;;;;;4390380;32;20218;-75
2021/01/22 11:09:21;;;;;;;13.10;3.63;;;;;;;;;;4405541;32;20155;-75
2021/01/22 11:11:46;;;;;;;10.77;3.20;;;;;;;;;;4406361;32;20196;-75
2021/01/22 11:14:11;;;;;;;13.07;3.50;;;;;;;;;;4392057;32;20163;-74
2021/01/22 11:16:37;;;;;;;11.50;3.20;;;;;;;;;;4397729;32;20157;-75
2021/01/22 11:19:06;;;;;;;11.47;4.10;;;;;;;;;;4406015;32;20168;-75
2021/01/22 11:21:32;;;;;;;10.63;3.30;;;;;;;;;;4392090;32;20566;-75
2021/01/22 11:24:00;;;;;;;12.37;3.37;;;;;;;;;;4406641;32;20237;-76
2021/01/22 11:26:25;;;;;;;8.57;3.03;;;;;;;;;;4392004;32;20234;-76
2021/01/22 11:28:50;;;;;;;9.70;2.70;;;;;;;;;;4399572;32;20480;-74
2021/01/22 11:31:16;;;;;;;12.40;2.97;;;;;;;;;;4398579;32;20189;-76
2021/01/22 11:33:41;;;;;;;12.13;3.03;;;;;;;;;;4392076;32;20173;-75
2021/01/22 11:36:06;;;;;;;13.10;3.35;;;;;;;;;;4391961;32;20224;-77
2021/01/22 11:38:32;;;;;;;10.43;2.80;;;;;;;;;;4391626;32;20229;-75
2021/01/22 11:40:57;;;;;;;11.07;3.05;;;;;;;;;;4391867;32;20288;-75
2021/01/22 11:43:23;;;;;;;9.48;2.70;;;;;;;;;;4405861;32;20158;-76
2021/01/22 11:45:48;;;;;;;12.85;2.97;;;;;;;;;;4405280;32;20145;-74
2021/01/22 11:48:13;;;;;;;9.43;2.75;;;;;;;;;;4396062;32;20185;-75
2021/01/22 11:50:39;;;;;;;7.77;2.73;;;;;;;;;;4417781;32;20146;-76
2021/01/22 11:53:07;;;;;;;13.10;2.62;;;;;;;;;;4415946;32;20474;-78
2021/01/22 11:55:32;;;;;;;12.88;2.55;;;;;;;;;;4402408;32;20207;-73
2021/01/22 11:58:00;;;;;;;9.88;2.47;;;;;;;;;;4421066;32;20513;-75
2021/01/22 12:00:31;;;;;;;10.63;2.40;;;;;;;;;;4421069;32;20308;-75
2021/01/22 12:03:13;;;;;;;5.10;2.10;;;;;;;;;;4406722;32;20201;-75
2021/01/22 12:05:49;;;;;;;7.68;2.20;;;;;;;;;;4404482;32;20180;-75
2021/01/22 12:08:26;;;;;;;9.35;1.90;;;;;;;;;;4390939;32;20162;-74
2021/01/22 12:11:14;;;;;;;9.38;2.60;;;;;;;;;;4391534;32;20189;-74
2021/01/22 12:13:43;;;;;;;7.00;2.47;;;;;;;;;;4391519;32;20215;-74
2021/01/22 12:16:14;;;;;;;10.90;2.55;;;;;;;;;;4395662;32;20169;-75
2021/01/22 12:18:47;;;;;;;7.32;2.40;;;;;;;;;;4399897;32;20154;-75
2021/01/22 12:21:13;;;;;;;8.77;2.40;;;;;;;;;;4403542;32;20596;-76
2021/01/22 12:23:44;;;;;;;14.52;2.53;;;;;;;;;;4403681;32;20227;-75
2021/01/22 12:26:09;;;;;;;8.65;1.95;;;;;;;;;;4391739;32;20177;-75
2021/01/22 12:28:35;;;;;;;8.02;2.25;;;;;;;;;;4412309;32;20161;-76
2021/01/22 12:31:01;;;;;;;5.30;1.98;;;;;;;;;;4391420;32;20154;-75
2021/01/22 12:33:26;;;;;;;9.88;2.60;;;;;;;;;;4391417;32;20542;-76
2021/01/22 12:35:52;;;;;;;12.82;2.15;;;;;;;;;;4390978;32;20233;-75
2021/01/22 12:38:17;;;;;;;7.45;1.92;;;;;;;;;;4391243;32;20157;-76
2021/01/22 12:40:45;;;;;;;12.00;2.60;;;;;;;;;;4391265;32;20166;-75
2021/01/22 12:43:10;;;;;;;11.02;2.85;;;;;;;;;;4405361;32;20192;-75
2021/01/22 12:45:38;;;;;;;12.55;2.60;;;;;;;;;;4404661;32;20166;-76
2021/01/22 12:48:06;;;;;;;10.90;2.30;;;;;;;;;;4391336;32;20583;-75
2021/01/22 12:50:35;;;;;;;14.87;2.92;;;;;;;;;;4391384;32;20158;-74
2021/01/22 12:53:00;;;;;;;9.30;2.55;;;;;;;;;;4391236;32;20212;-75
2021/01/22 12:55:25;;;;;;;5.50;2.40;;;;;;;;;;4404453;32;20161;-75
2021/01/22 12:57:51;;;;;;;9.68;2.50;;;;;;;;;;4404616;32;20153;-75
2021/01/22 13:00:19;;;;;;;8.65;2.12;;;;;;;;;;4391131;32;20286;-75
2021/01/22 13:02:45;;;;;;;13.75;3.10;;;;;;;;;;4404866;32;20134;-75
2021/01/22 13:05:16;;;;;;;11.12;2.72;;;;;;;;;;4391039;32;20224;-76
2021/01/22 13:07:42;;;;;;;9.48;2.20;;;;;;;;;;4391008;32;20222;-76
2021/01/22 13:10:13;;;;;;;11.80;2.45;;;;;;;;;;4390944;32;20166;-74
2021/01/22 13:12:39;;;;;;;6.62;2.08;;;;;;;;;;4391141;32;20587;-76
2021/01/22 13:15:04;;;;;;;10.20;2.05;;;;;;;;;;4404954;32;20165;-75
2021/01/22 13:17:30;;;;;;;8.63;1.90;;;;;;;;;;4390638;32;20154;-76
2021/01/22 13:19:55;;;;;;;10.98;2.20;;;;;;;;;;4404364;32;20146;-76
2021/01/22 13:22:21;;;;;;;7.15;1.77;;;;;;;;;;4390635;32;20151;-76
2021/01/22 13:24:46;;;;;;;9.90;1.75;;;;;;;;;;4402855;32;20705;-76
2021/01/22 13:27:11;;;;;;;4.65;1.50;;;;;;;;;;4405439;32;20192;-75
2021/01/22 13:29:37;;;;;;;6.57;2.10;;;;;;;;;;4393942;32;20166;-75
2021/01/22 13:32:02;;;;;;;10.35;1.90;;;;;;;;;;4400472;32;20166;-75
2021/01/22 13:34:28;;;;;;;9.52;2.10;;;;;;;;;;4395902;32;20550;-75
2021/01/22 13:36:53;;;;;;;8.05;2.15;;;;;;;;;;4396594;32;20277;-74
2021/01/22 13:39:18;;;;;;;9.93;2.10;;;;;;;;;;4398791;32;20591;-75
2021/01/22 13:41:44;;;;;;;6.78;1.95;;;;;;;;;;4407760;32;20756;-75
2021/01/22 13:44:09;;;;;;;9.65;2.42;;;;;;;;;;4397361;32;20169;-76
2021/01/22 13:46:35;;;;;;;9.65;2.17;;;;;;;;;;4390619;32;20153;-76
2021/01/22 13:49:00;;;;;;;10.80;2.95;;;;;;;;;;4416239;32;20142;-76
2021/01/22 13:51:58;;;;;;;;;;;;;;;;;;;;;
2021/01/22 13:54:32;;;;;;;6.95;2.33;;;;;;;;;;4407133;32;20161;-76
2021/01/22 13:56:58;;;;;;;8.32;2.67;;;;;;;;;;4393759;32;20166;-76
2021/01/22 13:59:29;;;;;;;10.02;2.08;;;;;;;;;;4391927;32;20173;-76
2021/01/22 14:01:57;;;;;;;9.77;2.10;;;;;;;;;;4397486;32;20189;-76
2021/01/22 14:04:22;;;;;;;8.93;2.25;;;;;;;;;;4384902;32;20606;-77
2021/01/22 14:07:01;;;;;;;12.55;2.78;;;;;;;;;;4400842;32;20183;-76
2021/01/22 14:09:30;;;;;;;10.13;2.67;;;;;;;;;;4405491;32;20184;-76
2021/01/22 14:11:55;;;;;;;12.43;2.55;;;;;;;;;;4396621;32;20220;-76
2021/01/22 14:14:20;;;;;;;9.40;2.97;;;;;;;;;;4388581;32;20157;-76
2021/01/22 14:16:55;;;;;;;11.35;2.90;;;;;;;;;;4390273;32;20209;-80
2021/01/22 14:19:31;;;;;;;7.10;2.58;;;;;;;;;;4390654;32;20167;-80
2021/01/22 14:22:08;;;;;;;12.20;2.85;;;;;;;;;;4393909;32;20250;-79
2021/01/22 14:24:39;;;;;;;7.60;2.20;;;;;;;;;;4390343;32;20228;-79
2021/01/22 14:27:08;;;;;;;10.00;2.55;;;;;;;;;;4390949;32;20154;-79
2021/01/22 14:29:45;;;;;;;8.95;2.53;;;;;;;;;;4404043;32;20154;-82
2021/01/22 14:32:24;;;;;;;10.75;2.45;;;;;;;;;;4393698;32;20172;-79
2021/01/22 14:34:51;;;;;;;12.37;2.40;;;;;;;;;;4400732;32;20161;-80
2021/01/22 14:37:19;;;;;;;8.32;2.35;;;;;;;;;;4397967;32;20197;-79
2021/01/22 14:39:46;;;;;;;11.20;2.12;;;;;;;;;;4393146;32;20176;-79
2021/01/22 14:42:38;;;;;;;4.75;2.22;;;;;;;;;;4392924;32;20208;-80
2021/01/22 14:45:18;;;;;;;8.05;2.30;;;;;;;;;;4390366;32;20599;-79
2021/01/22 14:47:45;;;;;;;7.43;2.00;;;;;;;;;;4390858;32;20232;-79
2021/01/22 14:50:11;;;;;;;11.40;2.40;;;;;;;;;;4390248;32;20171;-80
2021/01/22 14:52:55;;;;;;;;;;;;;;;;;;;;;
2021/01/22 14:55:40;;;;;;;14.33;2.77;;;;;;;;;;4391726;32;20150;-79
2021/01/22 15:01:04;;;;;;;7.77;2.87;;;;;;;;;;4390504;32;20192;-78
2021/01/22 15:03:32;;;;;;;13.63;2.37;;;;;;;;;;4393534;32;20196;-78
2021/01/22 15:06:11;;;;;;;12.33;2.83;;;;;;;;;;4405533;32;20537;-79
2021/01/22 15:09:00;;;;;;;10.27;2.57;;;;;;;;;;4406461;32;20567;-79
2021/01/22 15:11:25;;;;;;;7.50;2.77;;;;;;;;;;4405572;32;20227;-79
2021/01/22 15:13:55;;;;;;;13.40;3.10;;;;;;;;;;4405488;32;20592;-79
2021/01/22 15:16:28;;;;;;;11.13;2.40;;;;;;;;;;4405480;32;20162;-79
2021/01/22 15:18:54;;;;;;;11.23;2.70;;;;;;;;;;4405924;32;20526;-79
2021/01/22 15:21:23;;;;;;;10.43;2.23;;;;;;;;;;4393317;32;20167;-78
2021/01/22 15:23:58;;;;;;;7.30;2.10;;;;;;;;;;4376909;32;20189;-79
2021/01/22 15:26:28;;;;;;;6.87;2.33;;;;;;;;;;4390471;32;20645;-77
2021/01/22 15:28:53;;;;;;;6.57;2.70;;;;;;;;;;4396368;32;20181;-78
2021/01/22 15:31:28;;;;;;;8.50;2.40;;;;;;;;;;4404870;32;20249;-79
2021/01/22 15:33:53;;;;;;;10.57;2.33;;;;;;;;;;4405409;32;20216;-78
2021/01/22 15:36:19;;;;;;;8.57;2.43;;;;;;;;;;4401342;32;20529;-80
2021/01/22 15:38:53;;;;;;;9.67;2.50;;;;;;;;;;4391700;32;20490;-80
2021/01/22 15:41:21;;;;;;;8.47;2.60;;;;;;;;;;4389429;32;20234;-78
2021/01/22 15:44:06;;;;;;;11.57;2.70;;;;;;;;;;4389946;32;20195;-78
2021/01/22 15:46:40;;;;;;;9.40;2.40;;;;;;;;;;4389801;32;20248;-78
2021/01/22 15:49:06;;;;;;;11.90;2.40;;;;;;;;;;4390069;32;20153;-79
2021/01/22 15:51:31;;;;;;;8.13;1.90;;;;;;;;;;4389644;32;20471;-78
2021/01/22 15:54:05;;;;;;;11.13;2.30;;;;;;;;;;4389771;32;20803;-79
2021/01/22 15:56:54;;;;;;;11.00;2.50;;;;;;;;;;4390323;32;20161;-80
2021/01/22 15:59:32;;;;;;;11.23;2.30;;;;;;;;;;4391296;32;20162;-79
2021/01/22 16:01:58;;;;;;;11.30;2.53;;;;;;;;;;4388868;32;20178;-79
2021/01/22 16:04:23;;;;;;;9.23;2.80;;;;;;;;;;4397774;32;20622;-78
2021/01/22 16:06:53;;;;;;;10.63;2.70;;;;;;;;;;4404685;32;20220;-78
2021/01/22 16:09:21;;;;;;;11.37;2.90;;;;;;;;;;4404523;32;20158;-78
2021/01/22 16:12:01;;;;;;;12.33;2.73;;;;;;;;;;4405263;32;20158;-78
2021/01/22 16:14:27;;;;;;;8.67;2.53;;;;;;;;;;4405135;32;20201;-78
2021/01/22 16:16:56;;;;;;;11.83;2.93;;;;;;;;;;4397268;32;20158;-78
2021/01/22 16:19:44;;;;;;;;;;;;;;;;;;;;;
2021/01/22 16:25:36;;;;;;;8.30;2.70;;;;;;;;;;4358775;32;20305;-79
2021/01/22 16:28:24;;;;;;;11.10;2.63;;;;;;;;;;4345895;32;20233;-79